Latest Weather Observations for Cowley Beach (Defence)

IDQ60801

Issued at 5:12 pm EST Saturday 22 September 2018 (issued every 10 minutes, with the page automatically refreshed every 10 minutes)

About weather observations | Map of weather stations | Latest weather observations for QLD | Other Formats
Station Details ID: 032194 Name: COWLEY BEACH (DEFENCE) Lat: -17.69 Lon: 146.11 Height: 4.25 m
Data from the previous 72 hours. | See also: Recent months for locations in Queensland
Date/Time
EST
Temp
°C
App
Temp
°C
Dew
Point
°C
Rel
Hum
%
Delta-T
°C
Wind Press
QNH
hPa
Press
MSL
hPa
Rain since
9am
mm
Dir  Spd
km/h
Gust
km/h
Spd
kts
Gust
kts
22/05:00pm 24.2 24.6 16.2 61 4.9 E 9 19 5 10 - - 0.0
22/04:30pm 24.8 24.8 16.2 58 5.3 E 11 20 6 11 - - 0.0
22/04:00pm 25.1 25.1 16.3 58 5.4 ESE 11 22 6 12 - - 0.0
22/03:30pm 25.7 25.4 15.4 53 6.2 ESE 11 22 6 12 - - 0.0
22/03:00pm 26.6 26.9 15.9 51 6.5 ESE 9 17 5 9 - - 0.0
22/02:30pm 27.3 28.2 16.6 52 6.6 ESE 7 19 4 10 - - 0.0
22/02:00pm 27.4 27.5 16.4 51 6.8 SE 11 22 6 12 - - 0.0
22/01:30pm 27.6 27.7 15.6 48 7.3 ESE 9 24 5 13 - - 0.0
22/01:00pm 26.6 26.9 15.9 51 6.5 SE 9 20 5 11 - - 0.0
22/12:30pm 27.9 28.2 15.9 48 7.4 SE 9 20 5 11 - - 0.0
22/12:00pm 26.8 26.9 15.5 50 6.9 SE 9 24 5 13 - - 0.0
22/11:30am 26.7 27.2 16.6 54 6.3 SSE 9 22 5 12 - - 0.0
22/11:00am 26.2 27.0 16.4 54 6.0 SE 7 15 4 8 - - 0.0
22/10:30am 25.7 26.1 15.4 53 6.2 SE 7 17 4 9 - - 0.0
22/10:00am 27.4 28.1 16.1 50 7.0 ESE 7 19 4 10 - - 0.0
22/09:30am 26.1 27.1 16.9 57 5.7 SE 7 20 4 11 - - 0.0
22/09:00am 26.5 27.6 17.0 56 5.9 SE 7 20 4 11 - - 0.4
22/08:30am 25.5 26.0 17.4 61 5.1 SE 11 22 6 12 - - 0.4
22/08:00am 24.9 25.7 18.1 66 4.3 SE 11 22 6 12 - - 0.4
22/07:30am 24.1 24.7 17.8 68 3.9 SE 11 26 6 14 - - 0.4
22/07:00am 23.9 24.4 18.3 71 3.5 SE 13 24 7 13 - - 0.4
22/06:30am 23.6 24.2 18.5 73 3.2 ESE 13 28 7 15 - - 0.4
22/06:00am 23.5 24.9 18.6 74 3.1 E 9 19 5 10 - - 0.4
22/05:30am 22.4 24.0 19.2 82 2.0 E 9 17 5 9 - - 0.4
22/05:00am 22.9 24.3 18.7 77 2.7 ESE 9 22 5 12 - - 0.2
22/04:30am 22.7 23.6 18.5 77 2.6 ESE 11 22 6 12 - - 0.2
22/04:00am 23.6 25.0 17.8 70 3.6 SE 7 17 4 9 - - 0.0
22/03:30am 23.1 24.9 17.3 70 3.6 SE 4 13 2 7 - - 0.0
22/03:00am 23.3 24.7 17.3 69 3.7 ESE 6 11 3 6 - - 0.0
22/02:30am 23.7 25.1 17.7 69 3.7 ESE 7 15 4 8 - - 0.0
22/02:00am 23.6 24.5 17.6 69 3.7 ESE 9 17 5 9 - - 0.0
22/01:30am 23.7 24.5 17.4 68 3.9 ESE 9 17 5 9 - - 0.0
22/01:00am 23.8 24.7 17.5 68 3.9 ESE 9 15 5 8 - - 0.0
22/12:30am 23.8 24.6 17.3 67 4.0 E 9 17 5 9 - - 0.0
22/12:00am 23.8 24.2 17.3 67 4.0 E 11 19 6 10 - - 0.0
 
Date/Time
EST
Temp
°C
App
Temp
°C
Dew
Point
°C
Rel
Hum
%
Delta-T
°C
Wind Press
QNH
hPa
Press
MSL
hPa
Rain since
9am
mm
Dir  Spd
km/h
Gust
km/h
Spd
kts
Gust
kts
21/11:30pm 23.8 23.9 17.5 68 3.9 ESE 13 20 7 11 - - 0.0
21/11:00pm 24.0 24.0 18.0 69 3.8 ESE 15 24 8 13 - - 0.0
21/10:30pm 24.0 23.8 17.5 67 4.0 ESE 15 24 8 13 - - 0.0
21/10:00pm 24.0 24.1 18.4 71 3.5 ESE 15 24 8 13 - - 0.0
21/09:30pm 23.9 24.2 17.9 69 3.8 ESE 13 20 7 11 - - 0.0
21/09:00pm 23.9 24.5 18.5 72 3.4 ESE 13 22 7 12 - - 0.0
21/08:30pm 24.0 24.4 18.2 70 3.6 ESE 13 20 7 11 - - 0.0
21/08:00pm 24.0 25.4 18.6 72 3.4 ESE 9 19 5 10 - - 0.0
21/07:30pm 23.9 25.1 18.3 71 3.5 ESE 9 20 5 11 - - 0.0
21/07:00pm 24.1 25.7 18.3 70 3.7 SE 7 19 4 10 - - 0.0
21/06:30pm 24.1 25.6 18.1 69 3.8 ESE 7 17 4 9 - - 0.0
21/06:00pm 24.2 25.0 18.2 69 3.8 ESE 11 20 6 11 - - 0.0
21/05:30pm 24.6 25.0 18.1 67 4.1 E 13 22 7 12 - - 0.0
21/05:00pm 25.3 25.6 18.0 64 4.6 ESE 13 22 7 12 - - 0.0
21/04:30pm 25.6 25.4 17.5 61 5.1 ESE 15 24 8 13 - - 0.0
21/04:00pm 26.0 26.3 17.9 61 5.1 ESE 13 24 7 13 - - 0.0
21/03:30pm 26.2 27.2 17.8 60 5.3 E 9 20 5 11 - - 0.0
21/03:00pm 26.7 27.7 17.8 58 5.6 SE 9 19 5 10 - - 0.0
21/02:30pm 27.9 29.5 18.3 56 6.1 ESE 7 20 4 11 - - 0.0
21/02:00pm 28.1 29.6 18.8 57 6.0 ESE 9 19 5 10 - - 0.0
21/01:30pm 28.1 29.2 18.8 57 6.0 SE 11 24 6 13 - - 0.0
21/01:00pm 27.4 27.9 18.4 58 5.7 SE 13 22 7 12 - - 0.0
21/12:30pm 27.1 27.7 18.7 60 5.4 SSE 13 22 7 12 - - 0.0
21/12:00pm 27.0 27.3 18.0 58 5.7 SE 13 26 7 14 - - 0.0
21/11:30am 27.0 28.6 18.3 59 5.5 SE 7 17 4 9 - - 0.0
21/11:00am 26.3 27.5 18.2 61 5.1 SE 9 19 5 10 - - 0.0
21/10:30am 25.9 26.7 18.1 62 4.9 SSE 11 24 6 13 - - 0.0
21/10:00am 25.9 27.3 18.6 64 4.6 S 9 20 5 11 - - 0.0
21/09:30am 25.6 26.8 18.3 64 4.6 S 9 17 5 9 - - 0.0
21/09:00am 25.1 26.2 18.1 65 4.4 S 9 20 5 11 - - 0.0
21/08:30am 23.6 25.0 17.3 67 3.9 SW 6 9 3 5 - - 0.0
21/08:00am 20.6 22.9 17.6 83 1.8 WNW 2 4 1 2 - - 0.0
21/07:30am 16.9 17.5 15.4 91 0.9 NW 6 7 3 4 - - 0.0
21/07:00am 15.5 16.8 14.2 92 0.7 CALM 0 4 0 2 - - 0.0
21/06:30am 14.8 15.1 13.3 91 0.8 NW 4 6 2 3 - - 0.0
21/06:00am 14.4 14.6 13.0 91 0.8 NW 4 6 2 3 - - 0.0
21/05:30am 14.2 15.1 12.8 91 0.8 CALM 0 0 0 0 - - 0.0
21/05:00am 14.7 15.3 13.2 91 0.8 NW 2 4 1 2 - - 0.0
21/04:30am 14.6 15.6 13.1 91 0.8 CALM 0 2 0 1 - - 0.0
21/04:00am 14.9 15.6 13.3 90 0.9 WNW 2 4 1 2 - - 0.0
21/03:30am 16.2 17.0 14.7 91 0.9 NW 4 6 2 3 - - 0.0
21/03:00am 16.1 16.4 14.6 91 0.9 NW 6 7 3 4 - - 0.0
21/02:30am 15.6 15.7 14.0 90 0.9 NW 6 7 3 4 - - 0.0
21/02:00am 15.7 16.2 13.9 89 1.0 NW 4 7 2 4 - - 0.0
21/01:30am 15.4 15.6 13.2 87 1.2 W 4 6 2 3 - - 0.0
21/01:00am 15.8 15.7 13.8 88 1.1 SW 7 9 4 5 - - 0.0
21/12:30am 15.8 15.8 14.2 90 0.9 WSW 7 11 4 6 - - 0.0
21/12:00am 15.5 15.6 13.9 90 0.9 WSW 6 9 3 5 - - 0.0
 
Date/Time
EST
Temp
°C
App
Temp
°C
Dew
Point
°C
Rel
Hum
%
Delta-T
°C
Wind Press
QNH
hPa
Press
MSL
hPa
Rain since
9am
mm
Dir  Spd
km/h
Gust
km/h
Spd
kts
Gust
kts
20/11:30pm 15.8 16.8 14.2 90 0.9 W 2 4 1 2 - - 0.0
20/11:00pm 16.7 18.0 15.2 91 0.9 NNW 2 6 1 3 - - 0.0
20/10:30pm 16.1 16.7 14.3 89 1.0 WNW 4 4 2 2 - - 0.0
20/10:00pm 16.6 17.4 14.8 89 1.0 W 4 4 2 2 - - 0.0
20/09:30pm 17.0 17.9 15.2 89 1.0 WNW 4 6 2 3 - - 0.0
20/09:00pm 17.0 17.9 15.0 88 1.2 W 4 6 2 3 - - 0.0
20/08:30pm 17.4 19.2 15.4 88 1.2 CALM 0 0 0 0 - - 0.0
20/08:00pm 17.9 19.8 15.7 87 1.3 CALM 0 0 0 0 - - 0.0
20/07:30pm 18.5 20.5 15.9 85 1.5 CALM 0 0 0 0 - - 0.0
20/07:00pm 19.4 21.5 16.2 82 1.9 CALM 0 0 0 0 - - 0.0
20/06:30pm 20.9 23.0 16.3 75 2.8 CALM 0 0 0 0 - - 0.0
20/06:00pm 23.4 25.3 16.7 66 4.1 E 2 4 1 2 - - 0.0
20/05:30pm 24.1 25.4 16.1 61 4.9 E 4 6 2 3 - - 0.0
20/05:00pm 24.6 26.1 16.6 61 4.9 E 4 6 2 3 - - 0.0
20/04:30pm 24.9 26.0 16.6 60 5.1 E 6 7 3 4 - - 0.0
20/04:00pm 25.4 26.5 16.5 58 5.5 ESE 6 9 3 5 - - 0.0
20/03:30pm 25.6 26.9 17.0 59 5.3 ESE 6 11 3 6 - - 0.0
20/03:00pm 26.3 27.7 17.4 58 5.6 SE 6 11 3 6 - - 0.0
20/02:30pm 27.3 28.6 17.2 54 6.3 SE 6 13 3 7 - - 0.0
20/02:00pm 27.0 28.2 16.9 54 6.3 SE 6 11 3 6 - - 0.0
20/01:30pm 26.9 28.0 16.5 53 6.4 SE 6 11 3 6 - - 0.0
20/01:00pm 26.8 27.7 17.6 57 5.8 SSE 9 17 5 9 - - 0.0
20/12:30pm 25.8 26.2 16.4 56 5.8 SE 9 15 5 8 - - 0.0
20/12:00pm 25.9 26.8 16.2 55 5.9 ESE 6 13 3 7 - - 0.0
20/11:30am 26.7 27.6 17.5 57 5.8 SSE 9 15 5 8 - - 0.0
20/11:00am 26.2 26.9 17.0 57 5.7 SSE 9 15 5 8 - - 0.0
20/10:30am 26.1 26.9 17.2 58 5.5 SSE 9 15 5 8 - - 0.0
20/10:00am 26.0 27.1 17.1 58 5.5 S 7 13 4 7 - - 0.0
20/09:30am 25.2 25.9 17.1 60 5.0 S 9 17 5 9 - - 0.0
20/09:00am 24.8 26.2 17.8 65 4.4 S 7 13 4 7 - - 0.0
20/08:30am 23.1 24.4 17.6 71 3.4 SSW 7 13 4 7 - - 0.0
20/08:00am 21.2 22.8 17.8 81 2.1 SW 6 9 3 5 - - 0.0
20/07:30am 18.7 21.2 17.2 91 0.9 CALM 0 0 0 0 - - 0.0
20/07:00am 16.8 18.2 15.5 92 0.8 NNW 2 4 1 2 - - 0.0
20/06:30am 16.0 17.1 14.7 92 0.7 WNW 2 4 1 2 - - 0.0
20/06:00am 16.0 16.4 14.7 92 0.7 NW 6 9 3 5 - - 0.0
20/05:30am 16.1 16.9 14.8 92 0.7 WNW 4 7 2 4 - - 0.0
20/05:00am 16.1 16.8 14.6 91 0.9 NNW 4 7 2 4 - - 0.0
20/04:30am 16.3 17.2 15.0 92 0.8 WNW 4 7 2 4 - - 0.0
20/04:00am 16.3 17.1 14.8 91 0.9 NW 4 6 2 3 - - 0.0
20/03:30am 16.3 17.1 14.8 91 0.9 W 4 6 2 3 - - 0.0
20/03:00am 16.7 17.3 15.2 91 0.9 NNW 6 11 3 6 - - 0.0
20/02:30am 16.7 17.6 15.2 91 0.9 NW 4 6 2 3 - - 0.0
20/02:00am 16.7 17.6 15.2 91 0.9 NW 4 6 2 3 - - 0.0
20/01:30am 16.7 17.3 15.2 91 0.9 NW 6 7 3 4 - - 0.0
20/01:00am 15.9 16.5 14.3 90 0.9 WNW 4 6 2 3 - - 0.0
20/12:30am 16.4 17.2 14.8 90 0.9 WNW 4 6 2 3 - - 0.0
20/12:00am 16.5 17.0 14.9 90 0.9 WSW 6 7 3 4 - - 0.0
 
Date/Time
EST
Temp
°C
App
Temp
°C
Dew
Point
°C
Rel
Hum
%
Delta-T
°C
Wind Press
QNH
hPa
Press
MSL
hPa
Rain since
9am
mm
Dir  Spd
km/h
Gust
km/h
Spd
kts
Gust
kts
19/11:30pm 16.2 16.9 14.4 89 1.0 W 4 6 2 3 - - 0.0
19/11:00pm 16.7 18.2 14.7 88 1.1 CALM 0 0 0 0 - - 0.0
19/10:30pm 17.2 18.1 15.2 88 1.2 W 4 6 2 3 - - 0.0
19/10:00pm 17.3 17.8 14.9 86 1.4 WSW 6 6 3 3 - - 0.0
19/09:30pm 18.0 18.9 15.1 83 1.7 WSW 4 6 2 3 - - 0.0
19/09:00pm 19.1 20.0 15.2 78 2.3 WSW 4 6 2 3 - - 0.0
19/08:30pm 22.6 23.9 16.2 67 3.9 E 4 6 2 3 - - 0.0
19/08:00pm 23.4 24.8 16.4 64 4.3 E 4 9 2 5 - - 0.0
19/07:30pm 23.4 24.9 16.7 66 4.1 ESE 4 9 2 5 - - 0.0
19/07:00pm 23.5 25.3 17.3 68 3.8 ESE 4 9 2 5 - - 0.0
19/06:30pm 23.3 25.2 16.6 66 4.1 SE 2 4 1 2 - - 0.0
19/06:00pm 24.0 25.4 16.5 63 4.6 SE 4 7 2 4 - - 0.0
19/05:30pm 24.5 25.6 16.7 61 4.8 ESE 6 9 3 5 - - 0.0

Other Formats:

Comma delimited format used in spreadsheet applications
http://www.bom.gov.au/fwo/IDQ60801/IDQ60801.99218.axf

JavaScript Object Notation format (JSON) in row-major order
http://www.bom.gov.au/fwo/IDQ60801/IDQ60801.99218.json